createdAt,value
2017-03-31T00:00:22.137Z,11.8
2017-03-31T00:01:02.633Z,11.83
2017-03-31T00:01:43.038Z,11.9
2017-03-31T00:02:23.539Z,12.01
2017-03-31T00:03:04.030Z,12.02
2017-03-31T00:03:44.456Z,12.23
2017-03-31T00:04:24.951Z,12.19
2017-03-31T00:05:05.372Z,12.24
2017-03-31T00:05:45.792Z,12.12
2017-03-31T00:07:33.287Z,11.9
2017-03-31T00:08:13.717Z,11.78
2017-03-31T00:08:54.195Z,11.8
2017-03-31T00:09:34.659Z,11.86
2017-03-31T00:10:15.165Z,11.86
2017-03-31T00:10:55.671Z,12.05
2017-03-31T00:11:36.146Z,12.16
2017-03-31T00:12:16.597Z,12.3
2017-03-31T00:14:14.256Z,12.24
2017-03-31T00:14:54.720Z,12.26
2017-03-31T00:15:35.202Z,12.23
2017-03-31T00:17:22.641Z,12.33
2017-03-31T00:18:03.080Z,12.08
2017-03-31T00:18:43.545Z,11.94
2017-03-31T00:19:24.007Z,12.05
2017-03-31T00:20:04.453Z,12.04
2017-03-31T00:20:44.968Z,12.09
2017-03-31T00:21:25.444Z,12.26
2017-03-31T00:22:05.906Z,12.37
2017-03-31T00:22:46.372Z,12.15
2017-03-31T00:23:26.800Z,12.13
2017-03-31T00:24:07.233Z,12.21
2017-03-31T00:24:47.715Z,12.27
2017-03-31T00:25:28.180Z,12.29
2017-03-31T00:26:08.635Z,12.23
2017-03-31T00:26:49.104Z,12.21
2017-03-31T00:27:29.626Z,12.12
2017-03-31T00:28:10.019Z,12.16
2017-03-31T00:28:50.471Z,12.08
2017-03-31T00:29:30.927Z,12.06
2017-03-31T00:30:11.363Z,12.08
2017-03-31T00:30:51.909Z,12.12
2017-03-31T00:31:32.361Z,12.29
2017-03-31T00:32:12.779Z,12.27
2017-03-31T00:32:53.252Z,12.38
2017-03-31T00:33:33.719Z,12.27
2017-03-31T00:34:14.197Z,12.31
2017-03-31T00:34:54.656Z,12.39
2017-03-31T00:35:35.109Z,12.38
2017-03-31T00:37:12.535Z,12.33
2017-03-31T00:37:53.001Z,12.33
2017-03-31T00:38:33.423Z,12.09
2017-03-31T00:40:46.193Z,11.87
2017-03-31T00:41:26.529Z,11.71
2017-03-31T00:42:06.984Z,11.57
2017-03-31T00:42:47.437Z,11.49
2017-03-31T00:43:27.891Z,11.49
2017-03-31T00:44:08.306Z,11.56
2017-03-31T00:44:48.759Z,11.5
2017-03-31T00:45:29.221Z,11.43
2017-03-31T00:47:16.729Z,11.35
2017-03-31T00:47:57.169Z,11.27
2017-03-31T00:48:37.634Z,11.27
2017-03-31T00:49:18.073Z,11.28
2017-03-31T00:49:58.560Z,11.46
2017-03-31T00:50:38.972Z,11.49
2017-03-31T00:51:19.458Z,11.52
2017-03-31T00:51:59.944Z,11.47
2017-03-31T00:53:37.354Z,11.46
2017-03-31T00:54:17.781Z,11.43
2017-03-31T00:54:58.206Z,11.62
2017-03-31T00:55:38.715Z,11.43
2017-03-31T00:56:19.208Z,11.44
2017-03-31T00:56:59.669Z,11.31
2017-03-31T00:57:40.133Z,11.29
2017-03-31T00:58:20.572Z,11.27
2017-03-31T00:59:01.057Z,11.2
2017-03-31T00:59:41.559Z,11.43
2017-03-31T01:00:22.032Z,11.53
2017-03-31T01:01:02.522Z,11.43
2017-03-31T01:02:50.028Z,11.11
2017-03-31T01:03:30.449Z,11.14
2017-03-31T01:05:22.977Z,11.19
2017-03-31T01:06:03.546Z,10.94
2017-03-31T01:06:44.053Z,10.92
2017-03-31T01:07:24.463Z,11.02
2017-03-31T01:08:04.913Z,10.95
2017-03-31T01:08:45.366Z,10.98
2017-03-31T01:09:25.844Z,10.84
2017-03-31T01:10:06.375Z,10.71
2017-03-31T01:10:46.826Z,10.77
2017-03-31T01:11:27.265Z,10.66
2017-03-31T01:12:07.720Z,10.65
2017-03-31T01:12:48.176Z,10.63
2017-03-31T01:14:40.708Z,10.86
2017-03-31T01:15:21.167Z,10.91
2017-03-31T01:16:01.608Z,10.77
2017-03-31T01:16:42.058Z,10.74
2017-03-31T01:17:22.570Z,10.56
2017-03-31T01:18:02.993Z,10.44
2017-03-31T01:18:43.421Z,10.44
2017-03-31T01:19:23.866Z,10.44
2017-03-31T01:21:21.535Z,10.63
2017-03-31T01:22:01.942Z,10.52
2017-03-31T01:22:42.433Z,10.53
2017-03-31T01:23:22.944Z,10.53
2017-03-31T01:24:03.365Z,10.43
2017-03-31T01:24:43.895Z,10.43
2017-03-31T01:25:24.408Z,10.44
2017-03-31T01:26:04.861Z,10.44
2017-03-31T01:26:45.344Z,10.34
2017-03-31T01:28:22.738Z,10.43
2017-03-31T01:29:03.183Z,10.42
2017-03-31T01:29:43.656Z,10.44
2017-03-31T01:30:24.120Z,10.44
2017-03-31T01:32:21.733Z,10.58
2017-03-31T01:33:02.238Z,10.68
2017-03-31T01:33:42.740Z,10.73
2017-03-31T01:34:23.189Z,10.89
2017-03-31T01:36:00.575Z,10.43
2017-03-31T01:36:41.048Z,10.36
2017-03-31T01:37:21.515Z,10.26
2017-03-31T01:38:01.943Z,10.33
2017-03-31T01:38:42.445Z,10.51
2017-03-31T01:39:22.890Z,10.52
2017-03-31T01:40:03.357Z,10.65
2017-03-31T01:42:16.089Z,10.68
2017-03-31T01:42:56.554Z,10.58
2017-03-31T01:43:37.006Z,10.39
2017-03-31T01:45:34.647Z,10.36
2017-03-31T01:46:15.079Z,10.36
2017-03-31T01:46:55.588Z,10.37
2017-03-31T01:47:35.986Z,10.37
2017-03-31T01:48:16.442Z,10.44
2017-03-31T01:48:56.880Z,10.47
2017-03-31T01:49:37.325Z,10.47
2017-03-31T01:50:17.796Z,10.51
2017-03-31T01:50:58.239Z,10.56
2017-03-31T01:51:38.679Z,10.58
2017-03-31T01:52:19.169Z,10.59
2017-03-31T01:52:59.546Z,10.77
2017-03-31T01:53:39.992Z,10.59
2017-03-31T01:54:20.453Z,10.76
2017-03-31T01:55:01.619Z,10.39
2017-03-31T01:55:42.065Z,10.22
2017-03-31T01:56:22.534Z,10.32
2017-03-31T01:57:02.956Z,10.4
2017-03-31T01:57:43.397Z,10.44
2017-03-31T01:58:23.821Z,10.37
2017-03-31T01:59:04.287Z,10.39
2017-03-31T01:59:44.765Z,10.09
2017-03-31T02:00:25.249Z,10.17
2017-03-31T02:01:05.697Z,10.22
2017-03-31T02:03:03.446Z,10.4
2017-03-31T02:03:43.844Z,10.34
2017-03-31T02:04:24.287Z,10.24
2017-03-31T02:05:04.754Z,10.24
2017-03-31T02:05:45.177Z,10.19
2017-03-31T02:06:25.637Z,10.1
2017-03-31T02:08:13.148Z,10.01
2017-03-31T02:08:53.571Z,9.89
2017-03-31T02:09:34.037Z,9.89
2017-03-31T02:10:14.508Z,9.86
2017-03-31T02:10:54.981Z,9.99
2017-03-31T02:11:35.441Z,9.96
2017-03-31T02:12:15.876Z,10.06
2017-03-31T02:12:56.318Z,10.12
2017-03-31T02:13:36.766Z,10.12
2017-03-31T02:14:17.266Z,10.17
2017-03-31T02:16:15.042Z,10.25
2017-03-31T02:16:55.394Z,9.99
2017-03-31T02:17:35.801Z,10
2017-03-31T02:19:48.528Z,10.06
2017-03-31T02:20:28.983Z,10.14
2017-03-31T02:21:09.409Z,10.22
2017-03-31T02:21:49.931Z,10.01
2017-03-31T02:24:02.717Z,10.01
2017-03-31T02:24:43.110Z,10.01
2017-03-31T02:25:23.623Z,10.03
2017-03-31T02:26:04.057Z,10.04
2017-03-31T02:26:44.545Z,9.83
2017-03-31T02:27:24.995Z,9.76
2017-03-31T02:28:05.505Z,9.76
2017-03-31T02:28:45.948Z,9.91
2017-03-31T02:29:26.390Z,10.01
2017-03-31T02:30:06.815Z,9.88
2017-03-31T02:30:47.294Z,9.82
2017-03-31T02:31:27.765Z,9.89
2017-03-31T02:32:08.191Z,10.15
2017-03-31T02:32:48.694Z,10.14
2017-03-31T02:33:29.142Z,10.37
2017-03-31T02:34:09.635Z,10.25
2017-03-31T02:35:47.122Z,10.4
2017-03-31T02:36:27.438Z,10.34
2017-03-31T02:37:07.911Z,10.44
2017-03-31T02:37:48.323Z,10.55
2017-03-31T02:38:28.769Z,10.56
2017-03-31T02:39:09.238Z,10.46
2017-03-31T02:41:01.786Z,10.03
2017-03-31T02:41:42.214Z,10.09
2017-03-31T02:43:40.694Z,10.17
2017-03-31T02:44:21.002Z,10.24
2017-03-31T02:46:33.771Z,10.15
2017-03-31T02:47:14.230Z,10.26
2017-03-31T02:47:54.708Z,10.09
2017-03-31T02:49:32.169Z,10.04
2017-03-31T02:50:12.557Z,9.96
2017-03-31T02:50:53.049Z,9.83
2017-03-31T02:51:33.528Z,9.86
2017-03-31T02:52:13.962Z,9.79
2017-03-31T02:52:54.440Z,9.71
2017-03-31T02:53:34.889Z,9.83
2017-03-31T02:54:15.343Z,9.81
2017-03-31T02:54:55.837Z,9.79
2017-03-31T02:55:36.297Z,10.06
2017-03-31T02:56:16.721Z,10.21
2017-03-31T02:56:57.191Z,10.25
2017-03-31T02:57:37.647Z,10.1
2017-03-31T02:58:18.140Z,10.01
2017-03-31T02:58:58.642Z,9.86
2017-03-31T02:59:39.109Z,9.76
2017-03-31T03:00:19.572Z,9.67
2017-03-31T03:00:59.976Z,9.78
2017-03-31T03:01:40.459Z,9.61
2017-03-31T03:02:20.916Z,9.75
2017-03-31T03:03:01.363Z,9.66
2017-03-31T03:03:41.838Z,9.63
2017-03-31T03:04:22.316Z,9.67
2017-03-31T03:05:02.797Z,9.63
2017-03-31T03:05:43.241Z,9.73
2017-03-31T03:06:23.736Z,9.82
2017-03-31T03:07:04.201Z,9.85
2017-03-31T03:07:44.700Z,9.97
2017-03-31T03:08:25.181Z,9.83
2017-03-31T03:09:05.663Z,9.89
2017-03-31T03:09:46.196Z,9.76
2017-03-31T03:10:26.663Z,9.71
2017-03-31T03:11:07.144Z,9.67
2017-03-31T03:11:47.560Z,9.56
2017-03-31T03:12:28.012Z,9.57
2017-03-31T03:14:15.461Z,9.7
2017-03-31T03:14:55.930Z,9.71
2017-03-31T03:15:36.403Z,9.79
2017-03-31T03:16:16.829Z,9.81
2017-03-31T03:16:57.329Z,9.73
2017-03-31T03:17:37.770Z,9.71
2017-03-31T03:18:18.239Z,9.73
2017-03-31T03:18:58.689Z,9.81
2017-03-31T03:19:39.157Z,9.83
2017-03-31T03:20:19.583Z,9.88
2017-03-31T03:22:32.259Z,9.76
2017-03-31T03:23:12.683Z,9.68
2017-03-31T03:23:53.158Z,9.57
2017-03-31T03:24:33.634Z,9.53
2017-03-31T03:25:14.105Z,9.48
2017-03-31T03:25:54.640Z,9.56
2017-03-31T03:26:35.076Z,9.5
2017-03-31T03:27:15.558Z,9.49
2017-03-31T03:27:56.180Z,9.43
2017-03-31T03:28:36.712Z,9.52
2017-03-31T03:29:17.175Z,9.53
2017-03-31T03:29:57.629Z,9.52
2017-03-31T03:30:38.055Z,9.42
2017-03-31T03:31:18.523Z,9.57
2017-03-31T03:31:58.976Z,9.46
2017-03-31T03:32:39.459Z,9.53
2017-03-31T03:33:19.900Z,9.49
2017-03-31T03:34:00.303Z,9.46
2017-03-31T03:34:40.731Z,9.43
2017-03-31T03:35:21.177Z,9.49
2017-03-31T03:36:01.666Z,9.49
2017-03-31T03:37:49.162Z,9.32
2017-03-31T03:38:29.600Z,9.27
2017-03-31T03:39:10.065Z,9.15
2017-03-31T03:39:50.507Z,9.27
2017-03-31T03:40:31.012Z,9.23
2017-03-31T03:41:11.481Z,9.21
2017-03-31T03:41:51.921Z,9.12
2017-03-31T03:42:32.369Z,8.87
2017-03-31T03:43:12.823Z,8.93
2017-03-31T03:43:53.309Z,8.91
2017-03-31T03:44:33.767Z,8.91
2017-03-31T03:45:14.238Z,8.99
2017-03-31T03:45:54.670Z,9.02
2017-03-31T03:46:35.144Z,9.1
2017-03-31T03:47:15.659Z,9.04
2017-03-31T03:47:56.129Z,9.02
2017-03-31T03:48:36.559Z,9.09
2017-03-31T03:49:17.092Z,9.1
2017-03-31T03:49:57.564Z,9.04
2017-03-31T03:50:38.009Z,8.93
2017-03-31T03:51:18.443Z,8.94
2017-03-31T03:51:58.911Z,9.2
2017-03-31T03:52:39.362Z,9.12
2017-03-31T03:53:19.837Z,9.18
2017-03-31T03:55:12.398Z,9.01
2017-03-31T03:55:52.901Z,8.88
2017-03-31T03:56:33.401Z,8.91
2017-03-31T03:57:13.815Z,9.02
2017-03-31T03:59:06.341Z,8.81
2017-03-31T03:59:46.842Z,8.86
2017-03-31T04:00:27.290Z,8.79
2017-03-31T04:01:07.781Z,8.78
2017-03-31T04:01:48.204Z,8.73
2017-03-31T04:02:28.690Z,8.9
2017-03-31T04:03:09.139Z,8.94
2017-03-31T04:03:49.613Z,8.99
2017-03-31T04:04:30.037Z,9.01
2017-03-31T04:05:10.457Z,9.01
2017-03-31T04:06:58.064Z,9.01
2017-03-31T04:07:38.439Z,8.99
2017-03-31T04:09:15.776Z,8.96
2017-03-31T04:09:56.233Z,8.91
2017-03-31T04:10:36.709Z,9.02
2017-03-31T04:12:24.208Z,8.94
2017-03-31T04:13:04.625Z,8.97
2017-03-31T04:13:45.056Z,8.91
2017-03-31T04:14:25.480Z,9.01
2017-03-31T04:15:05.905Z,8.94
2017-03-31T04:15:46.353Z,8.88
2017-03-31T04:16:26.848Z,8.83
2017-03-31T04:17:07.237Z,8.73
2017-03-31T04:17:47.785Z,8.68
2017-03-31T04:18:28.233Z,8.68
2017-03-31T04:19:08.719Z,8.63
2017-03-31T04:19:49.154Z,8.68
2017-03-31T04:21:27.084Z,8.57
2017-03-31T04:22:07.371Z,8.69
2017-03-31T04:22:47.869Z,8.54
2017-03-31T04:23:28.264Z,8.6
2017-03-31T04:24:08.752Z,8.62
2017-03-31T04:24:49.158Z,8.63
2017-03-31T04:25:29.613Z,8.62
2017-03-31T04:26:10.072Z,8.71
2017-03-31T04:26:50.493Z,8.76
2017-03-31T04:27:30.925Z,8.83
2017-03-31T04:28:11.377Z,8.83
2017-03-31T04:28:51.772Z,8.81
2017-03-31T04:31:04.547Z,8.66
2017-03-31T04:31:45.007Z,8.65
2017-03-31T04:32:25.474Z,8.63
2017-03-31T04:33:05.910Z,8.6
2017-03-31T04:33:46.348Z,8.53
2017-03-31T04:34:26.761Z,8.58
2017-03-31T04:35:07.259Z,8.68
2017-03-31T04:37:04.999Z,8.78
2017-03-31T04:37:45.390Z,8.71
2017-03-31T04:38:25.832Z,8.57
2017-03-31T04:39:06.345Z,8.63
2017-03-31T04:39:46.798Z,8.55
2017-03-31T04:40:27.267Z,8.65
2017-03-31T04:41:07.727Z,8.6
2017-03-31T04:41:48.178Z,8.58
2017-03-31T04:42:28.627Z,8.58
2017-03-31T04:43:09.084Z,8.66
2017-03-31T04:43:49.518Z,8.66
2017-03-31T04:44:29.971Z,8.62
2017-03-31T04:45:10.489Z,8.83
2017-03-31T04:45:50.963Z,8.78
2017-03-31T04:46:31.428Z,8.88
2017-03-31T04:47:11.870Z,9.05
2017-03-31T04:47:52.306Z,9.21
2017-03-31T04:48:32.723Z,9.25
2017-03-31T04:49:13.201Z,9.23
2017-03-31T04:49:53.653Z,9.27
2017-03-31T04:50:34.134Z,9.04
2017-03-31T04:51:14.591Z,8.93
2017-03-31T04:51:55.042Z,8.93
2017-03-31T04:52:35.478Z,8.96
2017-03-31T04:53:15.902Z,8.91
2017-03-31T04:53:56.401Z,8.76
2017-03-31T04:54:36.873Z,8.68
2017-03-31T04:55:17.351Z,8.63
2017-03-31T04:55:57.763Z,8.55
2017-03-31T04:56:38.231Z,8.57
2017-03-31T04:57:18.681Z,8.62
2017-03-31T04:57:59.195Z,8.6
2017-03-31T04:58:39.626Z,8.58
2017-03-31T04:59:20.095Z,8.65
2017-03-31T05:00:00.560Z,8.65
2017-03-31T05:00:41.034Z,8.71
2017-03-31T05:02:38.670Z,8.58
2017-03-31T05:03:19.108Z,8.45
2017-03-31T05:03:59.538Z,8.36
2017-03-31T05:04:40.026Z,8.51
2017-03-31T05:05:20.529Z,8.39
2017-03-31T05:06:00.987Z,8.45
2017-03-31T05:06:41.437Z,8.44
2017-03-31T05:07:21.900Z,8.33
2017-03-31T05:08:02.351Z,8.39
2017-03-31T05:08:42.835Z,8.32
2017-03-31T05:09:23.358Z,8.33
2017-03-31T05:10:03.817Z,8.36
2017-03-31T05:10:44.330Z,8.3
2017-03-31T05:11:24.793Z,8.32
2017-03-31T05:12:05.283Z,8.35
2017-03-31T05:12:45.708Z,8.28
2017-03-31T05:13:26.172Z,8.33
2017-03-31T05:15:38.893Z,8.32
2017-03-31T05:16:19.374Z,8.33
2017-03-31T05:18:32.094Z,8.35
2017-03-31T05:19:12.523Z,8.42
2017-03-31T05:19:52.965Z,8.32
2017-03-31T05:20:33.546Z,8.35
2017-03-31T05:21:13.974Z,8.26
2017-03-31T05:21:54.429Z,8.29
2017-03-31T05:22:34.902Z,8.33
2017-03-31T05:23:15.347Z,8.36
2017-03-31T05:23:55.793Z,8.4
2017-03-31T05:24:36.216Z,8.3
2017-03-31T05:26:13.654Z,8.48
2017-03-31T05:26:54.016Z,8.5
2017-03-31T05:27:34.470Z,8.51
2017-03-31T05:28:14.928Z,8.63
2017-03-31T05:28:55.384Z,8.54
2017-03-31T05:30:47.967Z,8.63
2017-03-31T05:31:28.359Z,8.58
2017-03-31T05:32:08.817Z,8.57
2017-03-31T05:32:49.284Z,8.48
2017-03-31T05:33:29.760Z,8.45
2017-03-31T05:34:10.250Z,8.47
2017-03-31T05:34:50.716Z,8.42
2017-03-31T05:36:43.427Z,8.58
2017-03-31T05:37:23.714Z,8.55
2017-03-31T05:38:04.191Z,8.63
2017-03-31T05:38:44.646Z,8.65
2017-03-31T05:39:25.100Z,8.76
2017-03-31T05:41:12.548Z,8.83
2017-03-31T05:41:52.980Z,8.73
2017-03-31T05:42:33.512Z,8.78
2017-03-31T05:43:13.933Z,8.66
2017-03-31T05:43:54.408Z,8.68
2017-03-31T05:44:34.848Z,8.58
2017-03-31T05:45:15.342Z,8.76
2017-03-31T05:45:55.817Z,8.87
2017-03-31T05:46:36.286Z,9.1
2017-03-31T05:47:16.725Z,9.18
2017-03-31T05:47:57.185Z,9.46
2017-03-31T05:48:37.622Z,9.64
2017-03-31T05:49:18.082Z,9.85
2017-03-31T05:49:58.542Z,10.24
2017-03-31T05:50:38.978Z,10.3
2017-03-31T05:51:19.446Z,10.55
2017-03-31T05:51:59.862Z,10.68
2017-03-31T05:52:40.370Z,10.74
2017-03-31T05:53:20.839Z,10.96
2017-03-31T05:54:01.325Z,10.88
2017-03-31T05:54:41.844Z,10.71
2017-03-31T05:55:22.279Z,10.92
2017-03-31T05:56:02.738Z,10.77
2017-03-31T05:56:43.226Z,10.68
2017-03-31T05:57:23.671Z,10.7
2017-03-31T05:59:16.225Z,11.11
2017-03-31T05:59:56.643Z,11.21
2017-03-31T06:00:37.127Z,11.47
2017-03-31T06:01:17.617Z,11.62
2017-03-31T06:01:58.106Z,11.62
2017-03-31T06:02:38.604Z,11.78
2017-03-31T06:04:36.221Z,11.62
2017-03-31T06:05:16.659Z,11.75
2017-03-31T06:05:57.144Z,11.97
2017-03-31T06:06:37.611Z,11.64
2017-03-31T06:08:30.161Z,12.13
2017-03-31T06:09:10.638Z,11.96
2017-03-31T06:09:51.149Z,11.89
2017-03-31T06:10:31.687Z,11.28
2017-03-31T06:11:12.168Z,10.92
2017-03-31T06:11:52.652Z,11.44
2017-03-31T06:12:33.122Z,11.8
2017-03-31T06:13:13.622Z,11.53
2017-03-31T06:13:54.055Z,11.71
2017-03-31T06:14:34.515Z,12.09
2017-03-31T06:15:15.047Z,12.29
2017-03-31T06:15:55.561Z,12.41
2017-03-31T06:16:36.011Z,11.9
2017-03-31T06:17:16.461Z,11.2
2017-03-31T06:17:56.908Z,10.52
2017-03-31T06:18:37.350Z,10.21
2017-03-31T06:19:17.808Z,10.21
2017-03-31T06:19:58.271Z,10.18
2017-03-31T06:20:38.715Z,10.33
2017-03-31T06:21:19.211Z,10.44
2017-03-31T06:21:59.658Z,10.43
2017-03-31T06:23:37.002Z,10.47
2017-03-31T06:24:17.471Z,10.46
2017-03-31T06:24:57.990Z,10.47
2017-03-31T06:26:55.591Z,10.6
2017-03-31T06:27:36.041Z,10.65
2017-03-31T06:28:16.502Z,10.78
2017-03-31T06:28:56.954Z,10.89
2017-03-31T06:29:38.119Z,11.03
2017-03-31T06:30:18.559Z,11.19
2017-03-31T06:30:59.080Z,11.27
2017-03-31T06:32:51.955Z,11.13
2017-03-31T06:33:32.449Z,11.03
2017-03-31T06:34:12.907Z,11.09
2017-03-31T06:34:53.366Z,11.1
2017-03-31T06:35:33.819Z,11.03
2017-03-31T06:36:14.238Z,11.09
2017-03-31T06:36:54.698Z,11.13
2017-03-31T06:38:32.055Z,11.2
2017-03-31T06:39:12.516Z,11.14
2017-03-31T06:39:53.018Z,11.29
2017-03-31T06:40:33.492Z,11.24
2017-03-31T06:41:13.973Z,11.29
2017-03-31T06:41:54.466Z,11.36
2017-03-31T06:42:34.902Z,11.36
2017-03-31T06:44:33.460Z,11.52
2017-03-31T06:45:13.583Z,11.5
2017-03-31T06:45:54.104Z,11.57
2017-03-31T06:46:34.599Z,11.53
2017-03-31T06:47:15.086Z,11.65
2017-03-31T06:47:55.510Z,11.65
2017-03-31T06:48:35.955Z,11.65
2017-03-31T06:49:17.138Z,11.74
2017-03-31T06:49:57.542Z,11.8
2017-03-31T06:50:38.045Z,11.9
2017-03-31T06:51:18.555Z,11.9
2017-03-31T06:51:59.029Z,11.8
2017-03-31T06:52:39.716Z,11.96
2017-03-31T06:53:20.160Z,11.9
2017-03-31T06:54:00.842Z,12.06
2017-03-31T06:54:41.460Z,12.04
2017-03-31T06:55:22.153Z,12.05
2017-03-31T06:56:02.849Z,12.08
2017-03-31T06:56:43.458Z,12.05
2017-03-31T06:57:24.095Z,12.04
2017-03-31T06:58:04.841Z,12.09
2017-03-31T06:58:45.372Z,12.05
2017-03-31T06:59:25.756Z,12.08
2017-03-31T07:00:06.503Z,12.11
2017-03-31T07:00:46.910Z,12.08
2017-03-31T07:01:28.570Z,12.12
2017-03-31T07:02:09.024Z,12.19
2017-03-31T07:02:49.514Z,12.19
2017-03-31T07:03:29.933Z,12.29
2017-03-31T07:04:10.411Z,12.33
2017-03-31T07:06:03.514Z,12.78
2017-03-31T07:06:43.621Z,13.15
2017-03-31T07:07:24.094Z,13.55
2017-03-31T07:08:04.532Z,13.95
2017-03-31T07:08:45.049Z,13.74
2017-03-31T07:09:25.640Z,13.84
2017-03-31T07:10:06.276Z,13.87
2017-03-31T07:10:47.032Z,13.58
2017-03-31T07:11:27.738Z,13.84
2017-03-31T07:12:08.509Z,14.28
2017-03-31T07:12:49.269Z,13.98
2017-03-31T07:13:29.949Z,14.27
2017-03-31T07:14:12.051Z,14.37
2017-03-31T07:14:52.635Z,14.49
2017-03-31T07:15:33.595Z,14.6
2017-03-31T07:16:14.309Z,14.46
2017-03-31T07:16:54.983Z,13.89
2017-03-31T07:17:35.680Z,14.12
2017-03-31T07:18:16.573Z,14.37
2017-03-31T07:18:57.299Z,14.49
2017-03-31T07:19:37.938Z,14.46
2017-03-31T07:20:18.577Z,14.17
2017-03-31T07:20:59.236Z,14.43
2017-03-31T07:21:39.960Z,14.71
2017-03-31T07:22:20.795Z,14.84
2017-03-31T07:23:01.307Z,14.62
2017-03-31T07:23:41.845Z,14.68
2017-03-31T07:24:22.483Z,15.08
2017-03-31T07:25:03.076Z,15.51
2017-03-31T07:25:43.832Z,15.75
2017-03-31T07:26:24.525Z,15.49
2017-03-31T07:27:05.256Z,15.33
2017-03-31T07:27:45.890Z,15.26
2017-03-31T07:28:26.473Z,14.86
2017-03-31T07:30:03.892Z,15.64
2017-03-31T07:30:44.331Z,16.3
2017-03-31T07:31:24.750Z,16.14
2017-03-31T07:32:05.205Z,15.51
2017-03-31T07:32:45.628Z,15.89
2017-03-31T07:33:26.146Z,16.83
2017-03-31T07:34:09.384Z,16.8
2017-03-31T07:34:49.847Z,17.03
2017-03-31T07:35:30.311Z,16.81
2017-03-31T07:36:10.783Z,17
2017-03-31T07:36:51.303Z,16.81
2017-03-31T07:37:31.678Z,16.93
2017-03-31T07:38:12.102Z,16.67
2017-03-31T07:38:52.642Z,16.88
2017-03-31T07:39:33.130Z,17.57
2017-03-31T07:40:13.621Z,17.59
2017-03-31T07:40:54.057Z,17.5
2017-03-31T07:41:34.538Z,17.69
2017-03-31T07:42:15.005Z,18.15
2017-03-31T07:42:55.535Z,18.25
2017-03-31T07:43:35.988Z,18.37
2017-03-31T07:44:16.462Z,18.31
2017-03-31T07:44:56.880Z,18.39
2017-03-31T07:45:37.369Z,18.82
2017-03-31T07:46:17.834Z,19.48
2017-03-31T07:46:58.329Z,19.8
2017-03-31T07:47:38.754Z,20.24
2017-03-31T07:48:19.238Z,20.2
2017-03-31T07:50:16.953Z,17.57
2017-03-31T07:50:57.338Z,18.03
2017-03-31T07:51:37.850Z,19.43
2017-03-31T07:52:18.372Z,20.53
2017-03-31T07:52:58.868Z,20.51
2017-03-31T07:53:39.756Z,20.24
2017-03-31T07:54:20.365Z,20.5
2017-03-31T07:55:57.767Z,21.85
2017-03-31T07:56:38.229Z,22.16
2017-03-31T07:57:18.860Z,22.39
2017-03-31T07:58:00.005Z,21.32
2017-03-31T07:58:40.454Z,20.43
2017-03-31T07:59:21.022Z,20.58
2017-03-31T08:00:01.498Z,20.56
2017-03-31T08:00:41.998Z,20.56
2017-03-31T08:01:22.536Z,21.08
2017-03-31T08:02:03.939Z,21.9
2017-03-31T08:02:44.450Z,22.38
2017-03-31T08:03:24.904Z,21.51
2017-03-31T08:04:05.384Z,21.34
2017-03-31T08:04:45.883Z,20.34
2017-03-31T08:05:26.372Z,19.95
2017-03-31T08:06:06.895Z,20.2
2017-03-31T08:06:47.450Z,20.53
2017-03-31T08:07:27.847Z,21.13
2017-03-31T08:08:08.326Z,21.35
2017-03-31T08:08:49.768Z,21.01
2017-03-31T08:09:30.441Z,21.44
2017-03-31T08:10:10.992Z,20.99
2017-03-31T08:10:51.547Z,21.2
2017-03-31T08:11:32.275Z,21.75
2017-03-31T08:12:12.951Z,21.83
2017-03-31T08:12:53.620Z,21.51
2017-03-31T08:13:34.246Z,21.11
2017-03-31T08:14:16.200Z,21.08
2017-03-31T08:14:57.459Z,21.19
2017-03-31T08:15:38.152Z,21.41
2017-03-31T08:16:19.395Z,22.43
2017-03-31T08:17:00.191Z,23.02
2017-03-31T08:17:40.803Z,22.86
2017-03-31T08:18:21.446Z,23.15
2017-03-31T08:19:02.082Z,22.49
2017-03-31T08:19:42.813Z,22.68
2017-03-31T08:20:23.309Z,23.12
2017-03-31T08:21:04.399Z,22.06
2017-03-31T08:21:44.842Z,21.27
2017-03-31T08:22:25.292Z,19.63
2017-03-31T08:23:05.842Z,19.57
2017-03-31T08:23:46.410Z,19.43
2017-03-31T08:25:34.025Z,20.35
2017-03-31T08:26:14.461Z,20.93
2017-03-31T08:26:54.878Z,21.64
2017-03-31T08:27:35.539Z,22.53
2017-03-31T08:28:16.005Z,22.64
2017-03-31T08:28:56.462Z,23.01
2017-03-31T08:29:37.084Z,22.97
2017-03-31T08:30:17.534Z,22.99
2017-03-31T08:30:58.009Z,23.82
2017-03-31T08:31:38.751Z,23.98
2017-03-31T08:32:19.259Z,24.44
2017-03-31T08:32:59.778Z,23.8
2017-03-31T08:33:40.264Z,22.2
2017-03-31T08:34:20.740Z,22.78
2017-03-31T08:36:33.491Z,24.85
2017-03-31T08:37:14.045Z,25.16
2017-03-31T08:37:54.739Z,24.37
2017-03-31T08:38:35.406Z,24.32
2017-03-31T08:42:05.434Z,24.02
2017-03-31T08:42:46.192Z,24.79
2017-03-31T08:43:26.740Z,24.77
2017-03-31T08:44:07.338Z,25.1
2017-03-31T08:44:47.829Z,25.07
2017-03-31T08:45:28.296Z,24.8
2017-03-31T08:46:08.770Z,24.27
2017-03-31T08:48:06.422Z,22.41
2017-03-31T08:48:46.884Z,22.38
2017-03-31T08:49:27.408Z,23.01
2017-03-31T08:50:07.897Z,21.61
2017-03-31T08:50:48.349Z,21.3
2017-03-31T08:51:28.824Z,21.59
2017-03-31T08:53:41.705Z,21.5
2017-03-31T08:54:22.115Z,22.06
2017-03-31T08:55:02.580Z,22.19
2017-03-31T08:55:43.063Z,22.31
2017-03-31T08:56:23.652Z,22.65
2017-03-31T08:57:04.131Z,23.7
2017-03-31T08:57:44.646Z,24.27
2017-03-31T08:58:25.105Z,24.82
2017-03-31T08:59:05.607Z,24.83
2017-03-31T08:59:46.049Z,25.49
2017-03-31T09:00:26.559Z,25.42
2017-03-31T09:01:07.007Z,25.65
2017-03-31T09:01:47.495Z,26.27
2017-03-31T09:02:28.011Z,25.5
2017-03-31T09:03:08.460Z,24.5
2017-03-31T09:05:06.126Z,24.82
2017-03-31T09:05:46.603Z,26.65
2017-03-31T09:06:27.095Z,27.8
2017-03-31T09:07:07.580Z,27.76
2017-03-31T09:08:55.211Z,25.8
2017-03-31T09:09:35.646Z,26.06
2017-03-31T09:10:16.215Z,26.4
2017-03-31T09:10:56.890Z,26.55
2017-03-31T09:11:37.398Z,26.61
2017-03-31T09:12:17.817Z,25.43
2017-03-31T09:12:58.379Z,23.43
2017-03-31T09:13:38.905Z,22.75
2017-03-31T09:15:26.385Z,22.43
2017-03-31T09:16:06.930Z,22.75
2017-03-31T09:16:48.117Z,22.75
2017-03-31T09:17:28.609Z,21.95
2017-03-31T09:18:09.205Z,22.47
2017-03-31T09:18:49.786Z,22.27
2017-03-31T09:19:30.330Z,22.71
2017-03-31T09:21:43.230Z,21.94
2017-03-31T09:22:24.164Z,21.14
2017-03-31T09:23:04.736Z,21.11
2017-03-31T09:23:45.286Z,21.41
2017-03-31T09:24:25.853Z,21.95
2017-03-31T09:25:06.425Z,22.41
2017-03-31T09:27:04.164Z,21.78
2017-03-31T09:27:44.857Z,21.81
2017-03-31T09:28:25.591Z,22.16
2017-03-31T09:29:06.169Z,22.27
2017-03-31T09:29:46.849Z,22.13
2017-03-31T09:30:27.699Z,22.04
2017-03-31T09:31:08.274Z,21.61
2017-03-31T09:33:21.275Z,22.35
2017-03-31T09:34:01.901Z,21.78
2017-03-31T09:34:42.433Z,22.31
2017-03-31T09:35:22.973Z,22.5
2017-03-31T09:36:03.539Z,22.35
2017-03-31T09:36:44.893Z,22.09
2017-03-31T09:37:25.603Z,21.92
2017-03-31T09:38:06.168Z,22.29
2017-03-31T09:38:46.720Z,22.38
2017-03-31T09:39:27.512Z,22.49
2017-03-31T09:40:07.934Z,22.34
2017-03-31T09:40:49.134Z,22.62
2017-03-31T09:41:29.623Z,22.96
2017-03-31T09:42:10.109Z,23.49
2017-03-31T09:42:50.551Z,23.43
2017-03-31T09:43:31.087Z,22.31
2017-03-31T09:44:11.528Z,22.94
2017-03-31T09:45:48.903Z,22.53
2017-03-31T09:46:29.419Z,22.68
2017-03-31T09:47:09.844Z,23.14
2017-03-31T09:48:47.205Z,22.93
2017-03-31T09:49:27.668Z,22.93
2017-03-31T09:51:15.201Z,22.2
2017-03-31T09:51:55.646Z,22.52
2017-03-31T09:52:36.189Z,23.08
2017-03-31T09:53:16.626Z,23.53
2017-03-31T09:55:29.425Z,24.08
2017-03-31T09:56:10.231Z,23.85
2017-03-31T09:56:50.680Z,24.31
2017-03-31T09:57:31.145Z,24.1
2017-03-31T09:58:11.591Z,25.34
2017-03-31T09:58:52.056Z,25.75
2017-03-31T09:59:32.492Z,25.69
2017-03-31T10:00:12.974Z,26.22
2017-03-31T10:00:53.428Z,25.75
2017-03-31T10:01:33.959Z,26.12
2017-03-31T10:02:14.394Z,27.24
2017-03-31T10:02:54.856Z,27.95
2017-03-31T10:03:35.708Z,27.39
2017-03-31T10:04:16.184Z,27.05
2017-03-31T10:06:08.764Z,26.06
2017-03-31T10:06:49.257Z,26.43
2017-03-31T10:08:26.630Z,26.94
2017-03-31T10:09:07.104Z,27.36
2017-03-31T10:09:47.620Z,27.85
2017-03-31T10:10:28.216Z,28.22
2017-03-31T10:11:08.722Z,27.8
2017-03-31T10:11:49.203Z,27.95
2017-03-31T10:14:02.876Z,28.91
2017-03-31T10:14:43.402Z,25.89
2017-03-31T10:15:23.833Z,26.46
2017-03-31T10:16:04.312Z,26.12
2017-03-31T10:16:44.781Z,26.49
2017-03-31T10:17:25.272Z,26.99
2017-03-31T10:18:05.832Z,26.72
2017-03-31T10:18:46.177Z,26.62
2017-03-31T10:19:26.642Z,26.28
2017-03-31T10:20:07.085Z,26.42